Time;durP1;ratioP1;P1;durP2;ratioP2;P2;SDS_P1;SDS_P2;PMS_P1;PMS_P2;Temp;Humidity;BMP_temperature;BMP_pressure;BME280_temperature;BME280_humidity;BME280_pressure;Samples;Min_cycle;Max_cycle;Signal;HPM_P1;HPM_P2
2021/12/14 00:02:08;;;;;;;8.80;5.70;;;;;;;6.41;85.48;102551.16;10524791;28;20112;-82
2021/12/14 00:07:11;;;;;;;15.57;7.15;;;;;;;6.43;85.84;102541.78;10505062;28;20103;-81
2021/12/14 00:17:31;;;;;;;8.65;6.18;;;;;;;6.34;86.09;102540.06;10507845;28;20032;-82
2021/12/14 00:27:33;;;;;;;9.48;5.57;;;;;;;6.28;86.45;102556.00;10504831;28;20031;-82
2021/12/14 00:32:37;;;;;;;8.47;5.10;;;;;;;6.24;86.77;102539.22;10507128;28;20027;-82
2021/12/14 00:37:41;;;;;;;9.27;6.20;;;;;;;6.17;86.34;102534.22;10522894;28;20032;-82
2021/12/14 00:42:43;;;;;;;8.93;5.88;;;;;;;6.20;86.18;102521.50;10505797;28;20048;-82
2021/12/14 00:47:44;;;;;;;9.60;5.30;;;;;;;6.13;86.75;102526.91;10540133;28;20036;-82
2021/12/14 00:52:47;;;;;;;12.23;6.38;;;;;;;6.08;87.72;102536.88;10523326;28;20032;-82
2021/12/14 00:58:04;;;;;;;18.95;6.57;;;;;;;6.05;87.73;102549.56;10521529;28;20031;-82
2021/12/14 01:03:15;;;;;;;11.88;6.20;;;;;;;6.05;87.87;102551.28;10520392;28;20032;-82
2021/12/14 01:08:25;;;;;;;12.10;7.38;;;;;;;6.02;87.30;102539.81;10487929;28;20426;-81
2021/12/14 01:13:30;;;;;;;15.02;7.97;;;;;;;6.00;87.90;102553.41;10504822;28;20012;-82
2021/12/14 01:18:48;;;;;;;15.55;9.15;;;;;;;5.96;87.62;102567.81;10505924;28;20032;-82
2021/12/14 01:24:05;;;;;;;11.90;7.57;;;;;;;5.94;89.03;102563.22;10505364;28;20020;-82
2021/12/14 01:29:16;;;;;;;15.82;9.13;;;;;;;5.95;88.28;102552.06;10507926;28;20039;-82
2021/12/14 01:34:21;;;;;;;13.65;8.75;;;;;;;5.94;88.28;102550.22;10488758;28;20097;-82
2021/12/14 01:44:56;;;;;;;15.30;7.45;;;;;;;5.86;88.76;102565.13;10502289;28;20135;-82
2021/12/14 01:49:58;;;;;;;16.13;8.10;;;;;;;5.86;88.26;102581.59;10479758;28;20051;-82
2021/12/14 01:55:41;;;;;;;13.57;8.57;;;;;;;5.87;88.32;102565.25;10489532;28;20488;-83
2021/12/14 02:00:52;;;;;;;18.10;9.93;;;;;;;5.86;88.56;102539.13;10523693;28;20051;-83
2021/12/14 02:05:56;;;;;;;17.08;9.52;;;;;;;5.82;88.74;102537.91;10486316;28;20040;-83
2021/12/14 02:11:02;;;;;;;16.63;9.38;;;;;;;5.70;89.04;102535.09;10520123;28;20024;-83
2021/12/14 02:16:07;;;;;;;16.17;10.00;;;;;;;5.68;89.18;102546.09;10503748;28;20032;-84
2021/12/14 02:21:13;;;;;;;20.52;11.52;;;;;;;5.65;89.78;102522.44;10484838;28;20483;-83
2021/12/14 02:26:44;;;;;;;17.63;11.02;;;;;;;5.64;89.85;102523.19;10503271;28;20043;-83
2021/12/14 02:31:56;;;;;;;19.70;10.95;;;;;;;5.61;90.38;102504.72;10488753;28;20392;-83
2021/12/14 02:36:59;;;;;;;17.73;11.00;;;;;;;5.57;90.51;102506.13;10502898;28;20476;-83
2021/12/14 02:42:09;;;;;;;21.58;13.48;;;;;;;5.61;90.10;102510.84;10537207;28;20464;-83
2021/12/14 02:47:19;;;;;;;21.35;12.38;;;;;;;5.53;89.99;102504.91;10466537;28;20094;-82
2021/12/14 02:52:32;;;;;;;18.60;11.45;;;;;;;5.54;90.78;102495.44;10445325;28;20048;-83
2021/12/14 02:57:42;;;;;;;20.42;14.27;;;;;;;5.50;90.78;102483.84;10486492;28;20028;-82
2021/12/14 03:02:52;;;;;;;19.80;13.73;;;;;;;5.52;90.73;102479.72;10500372;28;20060;-82
2021/12/14 03:08:06;;;;;;;17.85;11.88;;;;;;;5.53;90.45;102484.13;10450501;28;20047;-83
2021/12/14 03:13:09;;;;;;;18.13;12.02;;;;;;;5.43;90.28;102490.16;10501541;28;20028;-83
2021/12/14 03:18:14;;;;;;;25.20;13.98;;;;;;;5.46;91.10;102486.91;10499296;28;20032;-82
2021/12/14 03:23:26;;;;;;;18.50;12.65;;;;;;;5.40;91.42;102486.34;10466207;28;20481;-82
2021/12/14 03:28:28;;;;;;;;;;;;;;;5.43;91.68;102499.63;10468106;28;20484;-82
2021/12/14 03:33:37;;;;;;;16.85;10.82;;;;;;;5.37;90.92;102492.19;10499880;28;19916;-82
2021/12/14 03:38:40;;;;;;;24.40;13.18;;;;;;;5.37;91.61;102493.84;10482006;28;20032;-82
2021/12/14 03:44:00;;;;;;;21.67;12.95;;;;;;;5.37;91.05;102486.06;10493182;28;20044;-82
2021/12/14 03:49:07;;;;;;;20.15;12.68;;;;;;;5.41;91.95;102482.97;10527302;28;20032;-82
2021/12/14 03:54:08;;;;;;;19.20;11.77;;;;;;;5.49;90.89;102476.81;10469258;28;20036;-82
2021/12/14 03:59:09;;;;;;;25.73;12.70;;;;;;;5.45;91.56;102477.31;10515069;28;20483;-82
2021/12/14 04:04:24;;;;;;;25.27;12.48;;;;;;;5.41;92.11;102467.41;10523164;28;20040;-82
2021/12/14 04:09:28;;;;;;;17.27;12.68;;;;;;;5.46;91.36;102458.34;10506291;28;20024;-82
2021/12/14 04:14:31;;;;;;;18.98;12.02;;;;;;;5.35;91.73;102485.00;10490875;28;20055;-82
2021/12/14 04:19:39;;;;;;;16.10;10.55;;;;;;;5.34;90.85;102491.88;10522744;28;20036;-82
2021/12/14 04:24:42;;;;;;;17.02;11.85;;;;;;;5.39;91.38;102518.28;10506549;28;20024;-82
2021/12/14 04:29:49;;;;;;;23.85;13.02;;;;;;;5.39;91.42;102519.19;10505888;28;20028;-82
2021/12/14 04:34:54;;;;;;;19.27;12.32;;;;;;;5.42;91.22;102516.91;10505760;28;20425;-82
2021/12/14 04:40:15;;;;;;;18.45;12.27;;;;;;;5.38;91.71;102513.84;10505042;28;20048;-82
2021/12/14 04:56:26;;;;;;;24.50;13.63;;;;;;;5.38;91.65;102506.06;10523504;28;20095;-83
2021/12/14 05:01:31;;;;;;;24.38;13.50;;;;;;;5.43;91.48;102507.41;10521907;28;20028;-83
2021/12/14 05:06:45;;;;;;;21.30;12.75;;;;;;;5.35;91.19;102506.69;10488026;28;20032;-83
2021/12/14 05:11:51;;;;;;;19.55;11.07;;;;;;;5.40;90.96;102494.13;10507311;28;20118;-83
2021/12/14 05:17:01;;;;;;;18.48;11.10;;;;;;;5.37;91.22;102478.25;10504972;28;20058;-83
2021/12/14 05:22:27;;;;;;;;;;;;;;;5.34;91.01;102485.75;10504395;28;20132;-83
2021/12/14 05:28:01;;;;;;;21.40;11.65;;;;;;;5.32;91.70;102492.50;10503959;28;20014;-83
2021/12/14 05:33:31;;;;;;;22.98;13.57;;;;;;;5.32;91.03;102485.63;10466065;28;20426;-83
2021/12/14 05:44:04;;;;;;;27.60;13.18;;;;;;;5.33;91.33;102474.47;10514154;28;20125;-82
2021/12/14 05:49:22;;;;;;;18.45;12.00;;;;;;;5.37;91.22;102476.59;10520236;28;20043;-82
2021/12/14 05:54:25;;;;;;;22.67;13.02;;;;;;;5.32;91.05;102480.44;10509051;28;20036;-83
2021/12/14 05:59:31;;;;;;;22.10;11.10;;;;;;;5.35;90.95;102492.78;10485619;28;20061;-77
2021/12/14 06:04:40;;;;;;;19.00;11.23;;;;;;;5.31;91.18;102494.19;10536067;28;20078;-77
2021/12/14 06:09:46;;;;;;;19.55;10.57;;;;;;;5.32;91.24;102497.69;10502223;28;20035;-77
2021/12/14 06:14:52;;;;;;;19.63;11.13;;;;;;;5.32;91.03;102503.81;10500159;28;20037;-77
2021/12/14 06:19:57;;;;;;;20.80;10.88;;;;;;;5.32;91.16;102497.69;10520473;28;20044;-81
2021/12/14 06:25:04;;;;;;;23.50;12.90;;;;;;;5.39;90.45;102503.63;10510112;28;20035;-83
2021/12/14 06:30:14;;;;;;;21.13;11.23;;;;;;;5.42;89.65;102490.00;10527247;28;20105;-80
2021/12/14 06:35:25;;;;;;;20.70;11.15;;;;;;;5.34;90.16;102494.47;10508979;28;20495;-80
2021/12/14 06:40:27;;;;;;;21.70;11.93;;;;;;;5.25;90.24;102504.00;10495654;28;20394;-80
2021/12/14 06:45:55;;;;;;;19.70;11.90;;;;;;;5.28;90.56;102514.66;10509467;28;20480;-80
2021/12/14 06:51:31;;;;;;;18.75;11.10;;;;;;;5.28;90.44;102523.34;10494092;28;20052;-78
2021/12/14 06:56:35;;;;;;;17.98;11.82;;;;;;;5.27;90.35;102534.50;10523828;28;20488;-79
2021/12/14 07:01:56;;;;;;;19.52;12.25;;;;;;;5.31;91.07;102542.59;10492605;28;20032;-79
2021/12/14 07:07:15;;;;;;;23.55;13.35;;;;;;;5.32;90.20;102539.22;10528912;28;20063;-80
2021/12/14 07:12:18;;;;;;;20.85;12.38;;;;;;;5.34;90.69;102543.81;10493728;28;20036;-80
2021/12/14 07:17:28;;;;;;;17.70;11.40;;;;;;;5.34;90.04;102546.41;10524112;28;20028;-79
2021/12/14 07:22:42;;;;;;;25.55;13.13;;;;;;;5.38;90.50;102545.00;10525273;28;20081;-85
2021/12/14 07:27:47;;;;;;;21.08;13.32;;;;;;;5.40;89.78;102556.44;10482779;28;20037;-82
2021/12/14 07:32:48;;;;;;;22.52;13.95;;;;;;;5.39;89.73;102565.00;10483117;28;20404;-82
2021/12/14 07:37:49;;;;;;;20.90;12.20;;;;;;;5.37;89.65;102575.28;10522689;28;20086;-81
2021/12/14 07:43:05;;;;;;;23.35;14.55;;;;;;;5.34;89.83;102595.75;10485322;28;20071;-82
2021/12/14 07:48:06;;;;;;;20.90;12.27;;;;;;;5.40;90.26;102588.53;10521962;28;20063;-81
2021/12/14 07:53:06;;;;;;;21.05;13.13;;;;;;;5.37;89.79;102600.31;10500528;28;20036;-82
2021/12/14 07:58:07;;;;;;;25.15;12.85;;;;;;;5.39;89.85;102612.69;10507350;28;20147;-84
2021/12/14 08:03:07;;;;;;;24.80;15.63;;;;;;;5.50;89.50;102613.69;10521491;28;20038;-84
2021/12/14 08:08:30;;;;;;;27.70;15.10;;;;;;;5.45;89.54;102620.13;10505667;28;20059;-83
2021/12/14 08:13:31;;;;;;;23.33;14.73;;;;;;;5.49;89.45;102629.16;10539127;28;20482;-83
2021/12/14 08:18:36;;;;;;;27.98;15.82;;;;;;;5.42;89.00;102635.41;10475457;28;20066;-85
2021/12/14 08:23:41;;;;;;;31.35;16.50;;;;;;;5.42;89.97;102635.41;10523406;28;20024;-85
2021/12/14 08:29:03;;;;;;;24.92;14.30;;;;;;;5.48;90.05;102632.53;10522279;28;20051;-86
2021/12/14 08:34:11;;;;;;;24.95;15.32;;;;;;;5.51;90.02;102636.31;10505298;28;20040;-80
2021/12/14 08:39:16;;;;;;;24.08;15.10;;;;;;;5.60;89.71;102620.72;10522216;28;20032;-82
2021/12/14 08:44:21;;;;;;;31.15;15.18;;;;;;;5.55;89.02;102627.16;10503837;28;20058;-81
2021/12/14 08:49:22;;;;;;;31.13;15.23;;;;;;;5.63;89.75;102620.06;10520482;28;21929;-82
2021/12/14 08:54:29;;;;;;;32.88;16.67;;;;;;;5.59;88.51;102619.78;10486854;28;20089;-86
2021/12/14 08:59:30;;;;;;;28.98;19.33;;;;;;;5.73;88.89;102607.19;10451503;28;20040;-81
2021/12/14 09:04:33;;;;;;;26.27;16.05;;;;;;;5.70;88.64;102622.50;10499572;28;20031;-86
2021/12/14 09:09:33;;;;;;;24.98;14.23;;;;;;;5.78;88.82;102621.53;10519935;28;20429;-86
2021/12/14 09:14:34;;;;;;;30.00;16.58;;;;;;;5.79;88.47;102628.56;10500850;28;20073;-85
2021/12/14 09:19:39;;;;;;;23.00;13.65;;;;;;;5.81;88.26;102633.94;10488504;28;20186;-83
2021/12/14 09:24:39;;;;;;;28.02;16.35;;;;;;;5.86;88.20;102640.47;10464587;28;20044;-84
2021/12/14 09:29:40;;;;;;;24.67;16.35;;;;;;;5.97;88.53;102647.63;10484380;28;20044;-83
2021/12/14 09:34:43;;;;;;;27.65;14.82;;;;;;;6.07;87.63;102645.91;10502921;28;20036;-83
2021/12/14 09:39:48;;;;;;;34.63;15.85;;;;;;;6.13;87.39;102651.69;10502684;28;20032;-84
2021/12/14 09:44:50;;;;;;;32.22;18.30;;;;;;;6.25;86.79;102626.84;10516265;28;20128;-85
2021/12/14 09:49:51;;;;;;;26.85;15.82;;;;;;;6.36;87.12;102630.44;10520201;28;20506;-84
2021/12/14 09:54:54;;;;;;;30.60;16.73;;;;;;;6.43;86.94;102634.53;10502046;28;20040;-84
2021/12/14 09:59:56;;;;;;;29.23;16.50;;;;;;;6.51;86.54;102633.56;10503279;28;20564;-84
2021/12/14 10:04:59;;;;;;;23.40;16.00;;;;;;;6.55;85.96;102634.75;10468986;28;20127;-84
2021/12/14 10:10:00;;;;;;;34.03;17.30;;;;;;;6.50;86.03;102638.59;10501073;28;20468;-84
2021/12/14 10:15:04;;;;;;;30.02;15.77;;;;;;;6.51;85.51;102643.03;10500109;28;20028;-87
2021/12/14 10:20:05;;;;;;;31.80;15.55;;;;;;;6.47;85.95;102642.75;10467667;28;20032;-85
2021/12/14 10:25:11;;;;;;;24.42;16.25;;;;;;;6.53;86.13;102645.03;10518338;28;20509;-84
2021/12/14 10:30:19;;;;;;;33.05;19.08;;;;;;;6.60;85.47;102643.88;10502948;28;20035;-86
2021/12/14 10:35:23;;;;;;;30.75;18.80;;;;;;;6.65;85.16;102647.81;10508570;28;20127;-81
2021/12/14 10:45:55;;;;;;;30.83;17.70;;;;;;;6.82;84.84;102648.47;10519992;28;20048;-81
2021/12/14 10:50:56;;;;;;;28.77;17.50;;;;;;;6.89;84.72;102643.97;10518882;28;20040;-81
2021/12/14 10:56:09;;;;;;;28.20;19.15;;;;;;;7.05;84.48;102645.34;10482908;28;20426;-81
2021/12/14 11:01:15;;;;;;;29.35;17.33;;;;;;;7.12;83.83;102639.00;10486214;28;20028;-80
2021/12/14 11:06:21;;;;;;;34.65;18.48;;;;;;;7.30;82.96;102634.53;10488627;28;20093;-79
2021/12/14 11:11:34;;;;;;;27.73;17.13;;;;;;;7.46;83.42;102631.59;10509592;28;20387;-80
2021/12/14 11:22:13;;;;;;;33.15;17.90;;;;;;;7.66;82.80;102612.53;10482749;28;20324;-80
2021/12/14 11:27:30;;;;;;;32.75;18.25;;;;;;;8.06;81.66;102615.06;10466597;28;20094;-77
2021/12/14 11:32:30;;;;;;;33.65;18.48;;;;;;;8.20;79.26;102606.72;10469406;28;20039;-77
2021/12/14 11:37:33;;;;;;;26.55;15.98;;;;;;;7.98;80.69;102596.16;10465184;28;20036;-82
2021/12/14 11:42:34;;;;;;;31.83;19.88;;;;;;;7.91;80.81;102593.81;10480552;28;20021;-83
2021/12/14 11:53:11;;;;;;;33.50;18.75;;;;;;;7.84;81.64;102605.38;10465998;28;20050;-82
2021/12/14 11:58:17;;;;;;;33.28;18.40;;;;;;;7.94;82.00;102602.78;10450951;28;20036;-82
2021/12/14 12:03:23;;;;;;;27.02;17.83;;;;;;;8.29;81.50;102603.06;10518543;28;20123;-82
2021/12/14 12:13:45;;;;;;;40.47;19.20;;;;;;;8.35;80.38;102593.13;10503189;28;20028;-82
2021/12/14 12:19:22;;;;;;;33.33;19.83;;;;;;;8.37;80.29;102596.78;10504590;28;20040;-84
2021/12/14 12:24:40;;;;;;;32.42;18.17;;;;;;;8.19;80.75;102594.44;10386830;28;20488;-82
2021/12/14 12:29:41;;;;;;;29.20;17.30;;;;;;;8.16;81.07;102594.19;10483281;28;20033;-81
2021/12/14 12:34:43;;;;;;;38.75;20.10;;;;;;;8.03;81.64;102586.09;10521258;28;20118;-82
2021/12/14 12:39:48;;;;;;;33.35;19.15;;;;;;;8.18;81.43;102587.41;10466632;28;20032;-81
2021/12/14 12:44:48;;;;;;;31.88;18.85;;;;;;;8.30;80.36;102586.63;10503290;28;20399;-81
2021/12/14 12:49:51;;;;;;;33.55;17.27;;;;;;;8.47;79.76;102580.22;10504800;28;20028;-82
2021/12/14 12:55:21;;;;;;;29.80;17.83;;;;;;;8.45;80.57;102585.31;10505123;28;20387;-82
2021/12/14 13:00:36;;;;;;;29.83;18.08;;;;;;;8.33;80.87;102587.81;10537918;28;20059;-80
2021/12/14 13:05:54;;;;;;;31.15;17.70;;;;;;;8.17;81.17;102592.50;10488173;28;20502;-81
2021/12/14 13:11:02;;;;;;;29.02;18.33;;;;;;;8.06;81.24;102586.38;10521239;28;20106;-84
2021/12/14 13:16:06;;;;;;;44.08;20.77;;;;;;;7.96;82.71;102588.97;10519832;28;20055;-83
2021/12/14 13:21:27;;;;;;;34.05;18.50;;;;;;;7.87;82.98;102586.50;10518867;28;20051;-83
2021/12/14 13:26:35;;;;;;;35.05;19.40;;;;;;;7.89;82.57;102591.03;10503003;28;20046;-84
2021/12/14 13:31:52;;;;;;;39.47;21.40;;;;;;;7.92;82.59;102577.38;10513595;28;20061;-82
2021/12/14 13:36:53;;;;;;;34.60;20.60;;;;;;;7.89;82.82;102582.31;10488710;28;20028;-81
2021/12/14 13:42:00;;;;;;;30.13;21.00;;;;;;;7.83;83.35;102581.81;10536856;28;20024;-83
2021/12/14 13:47:03;;;;;;;33.13;19.98;;;;;;;7.84;83.38;102581.03;10537372;28;20499;-84
2021/12/14 13:52:04;;;;;;;33.78;19.02;;;;;;;7.79;83.44;102589.34;10502358;28;20384;-83
2021/12/14 13:57:05;;;;;;;36.17;21.70;;;;;;;7.77;84.00;102576.94;10484285;28;20028;-82
2021/12/14 14:02:06;;;;;;;32.75;18.98;;;;;;;7.78;83.29;102576.16;10499064;28;20114;-84
2021/12/14 14:07:06;;;;;;;36.20;21.33;;;;;;;7.83;83.69;102581.81;10495572;28;20024;-82
2021/12/14 14:12:16;;;;;;;37.05;21.00;;;;;;;7.80;83.21;102582.44;10510350;28;20472;-81
2021/12/14 14:17:24;;;;;;;33.10;21.13;;;;;;;7.78;83.36;102589.19;10466847;28;20093;-80
2021/12/14 14:22:30;;;;;;;36.80;21.55;;;;;;;7.71;84.09;102598.19;10517601;28;20078;-79
2021/12/14 14:27:46;;;;;;;36.47;23.13;;;;;;;7.69;83.81;102597.16;10517588;28;20153;-80
2021/12/14 14:32:59;;;;;;;35.67;21.73;;;;;;;7.66;84.12;102596.88;10518276;28;20499;-80
2021/12/14 14:38:02;;;;;;;38.03;24.15;;;;;;;7.66;83.81;102594.28;10484166;28;20032;-80
2021/12/14 14:43:04;;;;;;;;;;;;;;;7.64;84.18;102590.63;10465967;28;20030;-80
2021/12/14 14:48:24;;;;;;;41.60;22.35;;;;;;;7.56;84.67;102592.53;10518863;28;19923;-79
2021/12/14 14:53:30;;;;;;;42.13;23.30;;;;;;;7.51;84.54;102593.84;10492080;28;20388;-78
2021/12/14 14:58:36;;;;;;;38.00;21.92;;;;;;;7.47;84.78;102595.28;10525521;28;20080;-78
2021/12/14 15:03:56;;;;;;;33.90;21.52;;;;;;;7.43;84.97;102584.44;10474695;28;20057;-79
2021/12/14 15:09:08;;;;;;;34.90;21.50;;;;;;;7.43;85.04;102587.03;10473317;28;20061;-79
2021/12/14 15:14:19;;;;;;;36.60;20.27;;;;;;;7.45;84.75;102589.00;10499780;28;20116;-79
2021/12/14 15:19:39;;;;;;;36.78;20.70;;;;;;;7.41;84.95;102588.59;10484607;28;20629;-79
2021/12/14 15:24:57;;;;;;;43.28;24.10;;;;;;;7.37;85.53;102600.44;10525311;28;20028;-79
2021/12/14 15:30:22;;;;;;;40.22;21.98;;;;;;;7.30;85.80;102609.41;10506113;28;20028;-79
2021/12/14 15:35:36;;;;;;;36.58;20.63;;;;;;;7.27;86.12;102614.34;10541221;28;20032;-83
2021/12/14 15:40:47;;;;;;;35.03;23.65;;;;;;;7.27;86.38;102622.16;10523690;28;20061;-82
2021/12/14 15:46:04;;;;;;;39.58;24.13;;;;;;;7.20;86.18;102623.31;10540494;28;20381;-81
2021/12/14 15:51:08;;;;;;;39.20;22.38;;;;;;;7.17;86.19;102625.63;10524123;28;20043;-81
2021/12/14 15:56:08;;;;;;;34.75;20.27;;;;;;;7.24;86.44;102628.78;10520786;28;20044;-81
2021/12/14 16:01:12;;;;;;;31.42;20.02;;;;;;;7.26;85.81;102630.75;10539622;28;20032;-81
2021/12/14 16:06:12;;;;;;;34.60;21.20;;;;;;;7.20;86.35;102643.22;10506007;28;20078;-81
2021/12/14 16:16:16;;;;;;;38.20;20.98;;;;;;;7.19;86.36;102643.97;10503788;28;20046;-82
2021/12/14 16:21:17;;;;;;;34.63;23.10;;;;;;;7.24;86.35;102641.81;10505710;28;20053;-84
2021/12/14 16:26:19;;;;;;;37.45;20.70;;;;;;;7.19;86.08;102644.91;10520391;28;20067;-84
2021/12/14 16:31:25;;;;;;;34.70;19.85;;;;;;;7.15;86.48;102644.47;10478979;28;20460;-84
2021/12/14 16:36:31;;;;;;;38.20;22.40;;;;;;;7.13;86.62;102648.63;10456760;28;20043;-80
2021/12/14 16:41:34;;;;;;;34.17;18.52;;;;;;;7.16;86.08;102644.63;10496550;28;20032;-80
2021/12/14 16:46:39;;;;;;;34.28;20.42;;;;;;;7.12;86.35;102650.34;10495765;28;20037;-78
2021/12/14 16:51:40;;;;;;;37.97;21.30;;;;;;;7.07;86.69;102643.81;10479993;28;20119;-78
2021/12/14 16:56:43;;;;;;;45.67;24.38;;;;;;;7.02;87.04;102648.59;10497711;28;20107;-81
2021/12/14 17:01:52;;;;;;;32.42;20.50;;;;;;;7.03;86.56;102653.00;10479186;28;20089;-78
2021/12/14 17:06:54;;;;;;;30.55;19.48;;;;;;;7.10;86.09;102635.34;10462702;28;20051;-79
2021/12/14 17:11:56;;;;;;;40.63;20.30;;;;;;;7.01;86.09;102654.56;10462163;28;20031;-78
2021/12/14 17:17:02;;;;;;;47.67;23.42;;;;;;;7.00;86.26;102662.25;10478678;28;20116;-80
2021/12/14 17:22:08;;;;;;;41.20;23.60;;;;;;;6.90;86.76;102664.03;10479200;28;20028;-92
2021/12/14 17:27:12;;;;;;;38.28;20.98;;;;;;;6.97;86.40;102660.28;10478696;28;20472;-78
2021/12/14 17:32:16;;;;;;;40.22;20.88;;;;;;;6.95;87.08;102669.63;10455024;28;20036;-81
2021/12/14 17:37:20;;;;;;;34.00;21.73;;;;;;;6.95;86.89;102671.34;10476192;28;20044;-77
2021/12/14 17:42:29;;;;;;;36.97;19.80;;;;;;;6.93;86.92;102675.50;10460035;28;20115;-83
2021/12/14 17:47:32;;;;;;;33.33;20.13;;;;;;;6.88;87.15;102685.47;10460860;28;20038;-81
2021/12/14 17:52:37;;;;;;;38.33;22.17;;;;;;;6.82;87.39;102680.63;10461081;28;20048;-76
2021/12/14 17:57:41;;;;;;;33.45;20.08;;;;;;;6.84;87.48;102683.34;10494517;28;20042;-77
2021/12/14 18:02:49;;;;;;;33.35;20.85;;;;;;;6.84;87.43;102680.75;10492894;28;20029;-86
2021/12/14 18:07:58;;;;;;;33.78;20.55;;;;;;;6.86;87.35;102674.91;10476518;28;20040;-80
2021/12/14 18:13:02;;;;;;;32.08;19.35;;;;;;;6.85;87.34;102685.19;10459640;28;20033;-83
2021/12/14 18:23:27;;;;;;;33.88;23.15;;;;;;;6.79;87.42;102684.63;10463841;28;20021;-88
2021/12/14 18:28:28;;;;;;;33.33;19.15;;;;;;;6.77;88.11;102684.50;10461520;28;20115;-87
2021/12/14 18:33:28;;;;;;;36.80;20.88;;;;;;;6.80;87.25;102691.66;10477964;28;20108;-90
2021/12/14 18:38:29;;;;;;;34.13;18.70;;;;;;;6.74;87.23;102695.50;10492177;28;20028;-84
2021/12/14 18:43:37;;;;;;;31.23;19.08;;;;;;;6.74;87.39;102700.72;10493963;28;20028;-85
2021/12/14 18:54:10;;;;;;;43.70;23.50;;;;;;;6.70;88.07;102695.09;10503020;28;20020;-83
2021/12/14 18:59:22;;;;;;;39.00;21.70;;;;;;;6.75;88.02;102706.84;10501796;28;20051;-84
2021/12/14 19:04:30;;;;;;;39.13;24.00;;;;;;;6.83;87.50;102710.16;10519339;28;20070;-83
2021/12/14 19:09:36;;;;;;;32.75;20.83;;;;;;;6.80;87.43;102712.47;10518466;28;20044;-85
2021/12/14 19:14:39;;;;;;;41.25;22.08;;;;;;;6.78;87.77;102712.34;10500344;28;20024;-85
2021/12/14 19:19:40;;;;;;;42.58;25.02;;;;;;;6.84;87.67;102710.31;10517973;28;20488;-82
2021/12/14 19:24:41;;;;;;;36.88;24.67;;;;;;;6.81;87.41;102709.09;10517331;28;20033;-82
2021/12/14 19:29:42;;;;;;;36.47;23.13;;;;;;;6.83;87.99;102713.69;10490699;28;20055;-82
2021/12/14 19:34:51;;;;;;;47.47;25.52;;;;;;;6.82;87.64;102727.47;10542963;28;20091;-81
2021/12/14 19:39:53;;;;;;;48.35;27.85;;;;;;;6.82;87.41;102721.34;10491625;28;20387;-83
2021/12/14 19:44:56;;;;;;;44.92;27.88;;;;;;;6.86;87.97;102723.44;10491139;28;20126;-83
2021/12/14 19:50:14;;;;;;;41.70;25.45;;;;;;;6.88;87.93;102721.91;10490982;28;20492;-82
2021/12/14 19:55:17;;;;;;;43.58;24.45;;;;;;;6.93;87.39;102732.75;10522470;28;20059;-83
2021/12/14 20:00:27;;;;;;;47.75;26.92;;;;;;;6.95;87.60;102716.50;10502078;28;20028;-83
2021/12/14 20:05:36;;;;;;;39.13;24.95;;;;;;;7.00;86.95;102725.63;10490256;28;20059;-82
2021/12/14 20:10:37;;;;;;;44.55;27.17;;;;;;;6.96;87.83;102723.53;10521929;28;20039;-83
2021/12/14 20:15:40;;;;;;;51.63;29.60;;;;;;;7.03;87.13;102730.22;10522207;28;20028;-82
2021/12/14 20:20:42;;;;;;;49.65;29.02;;;;;;;6.99;87.34;102728.13;10505517;28;20032;-82
2021/12/14 20:25:48;;;;;;;53.35;28.52;;;;;;;7.02;87.81;102725.78;10488268;28;20077;-82
2021/12/14 20:30:52;;;;;;;45.83;26.58;;;;;;;7.07;87.79;102724.53;10540530;28;20427;-83
2021/12/14 20:35:54;;;;;;;54.85;28.83;;;;;;;7.03;87.59;102720.72;10515334;28;20464;-82
2021/12/14 20:40:55;;;;;;;44.05;26.85;;;;;;;7.07;87.41;102721.00;10480558;28;20487;-82
2021/12/14 20:45:55;;;;;;;49.88;28.40;;;;;;;7.06;87.53;102725.31;10451294;28;20040;-82
2021/12/14 20:51:00;;;;;;;43.05;27.08;;;;;;;7.00;87.57;102727.34;10505135;28;20059;-81
2021/12/14 20:56:06;;;;;;;45.95;26.20;;;;;;;6.98;87.84;102729.78;10503958;28;20028;-81
2021/12/14 21:01:07;;;;;;;46.13;29.92;;;;;;;7.02;87.93;102733.59;10489261;28;20040;-82
2021/12/14 21:06:20;;;;;;;49.37;28.70;;;;;;;7.05;87.62;102732.19;10519621;28;20392;-82
2021/12/14 21:11:24;;;;;;;;;;;;;;;7.06;87.91;102735.72;10504489;28;20027;-81
2021/12/14 21:16:26;;;;;;;51.28;30.30;;;;;;;7.09;87.47;102742.88;10505538;28;19916;-83
2021/12/14 21:21:32;;;;;;;43.33;28.75;;;;;;;7.09;87.41;102732.47;10519811;28;20039;-81
2021/12/14 21:26:33;;;;;;;40.58;28.35;;;;;;;7.05;87.04;102733.88;10518947;28;20058;-82
2021/12/14 21:31:38;;;;;;;48.95;26.23;;;;;;;7.04;87.96;102745.06;10504487;28;20024;-82
2021/12/14 21:36:40;;;;;;;46.83;27.30;;;;;;;7.05;88.11;102740.00;10485544;28;20527;-82
2021/12/14 21:41:44;;;;;;;47.00;25.98;;;;;;;7.12;87.25;102750.97;10492970;28;20032;-82
2021/12/14 21:46:49;;;;;;;40.05;24.75;;;;;;;7.12;87.34;102748.38;10493879;28;20048;-82
2021/12/14 21:51:56;;;;;;;43.60;26.23;;;;;;;7.09;87.69;102754.22;10502611;28;20481;-81
2021/12/14 21:56:57;;;;;;;40.78;24.50;;;;;;;7.09;87.50;102755.91;10503170;28;20472;-81
2021/12/14 22:01:58;;;;;;;41.95;28.15;;;;;;;7.10;87.43;102761.25;10502815;28;20094;-81
2021/12/14 22:07:02;;;;;;;42.13;24.90;;;;;;;7.09;86.90;102751.63;10537181;28;20086;-80
2021/12/14 22:12:05;;;;;;;47.53;25.85;;;;;;;7.07;87.18;102755.78;10503832;28;20036;-81
2021/12/14 22:17:08;;;;;;;34.92;22.40;;;;;;;7.12;86.49;102761.38;10502663;28;20385;-81
2021/12/14 22:22:10;;;;;;;38.63;23.45;;;;;;;7.12;86.87;102762.31;10502703;28;20033;-81
2021/12/14 22:27:11;;;;;;;37.70;22.73;;;;;;;7.12;86.49;102761.38;10502220;28;20020;-81
2021/12/14 22:32:12;;;;;;;43.45;24.83;;;;;;;7.09;86.34;102763.72;10518967;28;20105;-81
2021/12/14 22:37:14;;;;;;;43.78;22.00;;;;;;;7.07;87.18;102770.47;10497382;28;20028;-79
2021/12/14 22:47:34;;;;;;;38.47;22.85;;;;;;;7.08;86.98;102765.41;10523137;28;19916;-81
2021/12/14 22:52:34;;;;;;;45.60;24.00;;;;;;;7.10;86.88;102775.94;10502330;28;20460;-81
2021/12/14 22:57:35;;;;;;;42.03;24.00;;;;;;;7.05;86.64;102773.84;10517215;28;20050;-81
2021/12/14 23:02:35;;;;;;;41.03;25.02;;;;;;;7.04;86.71;102772.00;10523426;28;20071;-81
2021/12/14 23:07:36;;;;;;;36.05;24.00;;;;;;;7.11;86.82;102772.56;10525434;28;20060;-82
2021/12/14 23:12:49;;;;;;;39.97;22.73;;;;;;;7.13;86.81;102778.84;10509464;28;20375;-81
2021/12/14 23:18:22;;;;;;;32.90;21.40;;;;;;;7.09;86.20;102788.06;10509883;28;20123;-81
2021/12/14 23:23:10;;;;;;;40.17;23.10;;;;;;;7.02;86.68;102780.47;10509018;28;20044;-82
2021/12/14 23:28:11;;;;;;;39.10;23.10;;;;;;;7.05;86.79;102779.03;10525780;28;20122;-81
2021/12/14 23:33:12;;;;;;;42.38;24.05;;;;;;;7.04;86.87;102785.03;10525860;28;20399;-81
2021/12/14 23:38:12;;;;;;;38.22;21.42;;;;;;;7.06;86.84;102790.41;10525650;28;20035;-81
2021/12/14 23:43:13;;;;;;;41.08;23.02;;;;;;;7.09;86.38;102789.75;10542701;28;20118;-82
2021/12/14 23:48:15;;;;;;;36.40;22.30;;;;;;;7.09;86.33;102793.28;10523438;28;20037;-82
2021/12/14 23:53:16;;;;;;;32.92;21.20;;;;;;;7.06;86.51;102790.41;10523936;28;20123;-82
2021/12/14 23:58:16;;;;;;;39.13;23.38;;;;;;;7.09;87.02;102790.69;10524023;28;20040;-82
